Time;durP1;ratioP1;P1;durP2;ratioP2;P2;SDS_P1;SDS_P2;PMS_P1;PMS_P2;Temp;Humidity;BMP_temperature;BMP_pressure;BME280_temperature;BME280_humidity;BME280_pressure;Samples;Min_cycle;Max_cycle;Signal;HPM_P1;HPM_P2
2022/01/22 00:00:13;;;;;;;9.60;2.63;;;;;;;-1.55;94.73;95830.03;5079647;28;20546;-74
2022/01/22 00:02:59;;;;;;;5.07;2.07;;;;;;;-1.50;93.75;95821.69;5073363;28;20194;-73
2022/01/22 00:05:45;;;;;;;6.53;2.07;;;;;;;-1.56;93.62;95831.16;5052358;28;20569;-73
2022/01/22 00:08:31;;;;;;;3.30;1.80;;;;;;;-1.39;91.77;95819.94;5047761;28;20210;-73
2022/01/22 00:11:17;;;;;;;3.10;1.77;;;;;;;-1.45;91.17;95827.53;5077843;28;20218;-73
2022/01/22 00:17:08;;;;;;;3.53;2.30;;;;;;;-1.33;91.37;95813.97;5054889;28;20200;-73
2022/01/22 00:19:54;;;;;;;5.17;2.00;;;;;;;-1.37;90.42;95812.34;5053078;28;20666;-73
2022/01/22 00:22:42;;;;;;;3.57;1.83;;;;;;;-1.38;90.33;95811.59;5056392;28;20193;-73
2022/01/22 00:25:28;;;;;;;7.80;2.37;;;;;;;-1.36;90.83;95817.31;5070779;28;20189;-73
2022/01/22 00:28:14;;;;;;;5.40;2.23;;;;;;;-1.31;90.97;95810.91;5068334;28;20768;-73
2022/01/22 00:30:59;;;;;;;5.73;2.17;;;;;;;-1.31;90.74;95819.72;5093267;28;20213;-73
2022/01/22 00:33:45;;;;;;;3.33;1.67;;;;;;;-1.26;88.92;95819.41;5068318;28;20194;-73
2022/01/22 00:36:32;;;;;;;4.17;2.00;;;;;;;-1.19;88.45;95821.44;5048314;28;20222;-73
2022/01/22 00:39:18;;;;;;;4.40;1.70;;;;;;;-1.27;88.60;95815.19;5070442;28;20219;-73
2022/01/22 00:42:10;;;;;;;2.60;1.67;;;;;;;-1.25;88.63;95812.94;5079519;28;20261;-73
2022/01/22 00:44:56;;;;;;;4.17;1.57;;;;;;;-1.22;88.29;95811.41;5037170;28;20660;-73
2022/01/22 00:47:42;;;;;;;4.50;1.97;;;;;;;-1.29;87.88;95811.34;5074536;28;20220;-73
2022/01/22 00:50:28;;;;;;;6.07;2.03;;;;;;;-1.28;89.31;95802.94;5069132;28;20277;-73
2022/01/22 00:53:14;;;;;;;3.40;1.50;;;;;;;-1.35;88.23;95799.34;5060279;28;20201;-73
2022/01/22 00:56:00;;;;;;;4.47;2.30;;;;;;;-1.24;87.91;95785.00;5052590;28;20277;-73
2022/01/22 00:58:46;;;;;;;4.03;1.90;;;;;;;-1.27;88.04;95784.94;5042143;28;20213;-73
2022/01/22 01:01:32;;;;;;;7.20;1.73;;;;;;;-1.24;87.40;95785.00;5060391;28;20553;-73
2022/01/22 01:04:18;;;;;;;6.73;1.93;;;;;;;-1.36;87.97;95765.69;5057922;28;20266;-73
2022/01/22 01:07:04;;;;;;;5.97;1.60;;;;;;;-1.24;87.58;95784.25;5065397;28;20713;-73
2022/01/22 01:09:50;;;;;;;2.70;1.93;;;;;;;-1.23;87.60;95791.13;5059660;28;20255;-73
2022/01/22 01:12:39;;;;;;;3.67;1.40;;;;;;;-1.20;87.87;95792.34;5038463;28;20594;-73
2022/01/22 01:33:58;;;;;;;2.97;1.40;;;;;;;-1.11;86.98;95782.13;5049880;28;20275;-73
2022/01/22 01:36:45;;;;;;;6.43;2.23;;;;;;;-1.14;87.78;95777.47;5050461;28;20186;-73
2022/01/22 01:39:34;;;;;;;3.50;1.60;;;;;;;-1.19;87.23;95775.09;5076498;28;20209;-73
2022/01/22 01:42:32;;;;;;;2.33;1.37;;;;;;;-1.19;87.90;95777.78;5070550;28;20186;-73
2022/01/22 01:45:19;;;;;;;2.67;1.67;;;;;;;-1.27;88.06;95731.34;5070561;28;20190;-73
2022/01/22 01:48:15;;;;;;;3.17;1.50;;;;;;;-1.18;87.99;95752.53;5076126;28;20213;-73
2022/01/22 01:51:00;;;;;;;2.97;1.73;;;;;;;-1.17;86.25;95770.91;5079545;28;20221;-73
2022/01/22 01:59:46;;;;;;;4.43;1.83;;;;;;;-1.19;87.24;95759.81;5071805;28;20197;-73
2022/01/22 02:02:39;;;;;;;4.63;1.50;;;;;;;-1.17;86.63;95773.59;5050672;28;20272;-73
2022/01/22 02:05:25;;;;;;;4.00;1.43;;;;;;;-1.17;87.27;95768.25;5064574;28;20626;-74
2022/01/22 02:08:18;;;;;;;2.20;1.00;;;;;;;-1.06;87.35;95771.06;5055239;28;20205;-73
2022/01/22 02:11:11;;;;;;;1.17;1.07;;;;;;;-1.14;87.27;95750.69;5055345;28;20245;-73
2022/01/22 02:26:24;;;;;;;1.10;1.00;;;;;;;-1.10;86.01;95779.06;5053830;28;20216;-73
2022/01/22 02:29:10;;;;;;;2.53;1.00;;;;;;;-0.92;86.07;95750.63;5063101;28;20237;-73
2022/01/22 02:35:36;;;;;;;3.93;1.30;;;;;;;-0.89;85.45;95730.34;5055341;28;20194;-73
2022/01/22 02:38:32;;;;;;;6.70;1.40;;;;;;;-0.91;85.61;95732.59;5063857;28;20240;-73
2022/01/22 02:41:21;;;;;;;2.93;1.23;;;;;;;-0.82;84.10;95741.16;5071586;28;20189;-73
2022/01/22 02:44:11;;;;;;;1.67;1.20;;;;;;;-0.92;84.75;95744.47;5037235;28;20671;-73
2022/01/22 02:46:57;;;;;;;3.73;1.23;;;;;;;-0.88;85.12;95742.63;5076012;28;20644;-73
2022/01/22 02:49:43;;;;;;;1.67;1.03;;;;;;;-0.88;84.04;95750.66;5073357;28;20204;-73
2022/01/22 02:52:32;;;;;;;3.67;1.17;;;;;;;-0.81;83.63;95740.78;5075477;28;20213;-73
2022/01/22 02:55:18;;;;;;;1.77;1.33;;;;;;;-0.84;82.85;95738.84;5064833;28;20537;-73
2022/01/22 02:58:07;;;;;;;1.00;0.90;;;;;;;-0.85;83.31;95734.63;5069117;28;20624;-73
2022/01/22 03:00:53;;;;;;;3.43;1.50;;;;;;;-0.84;83.79;95733.47;5071809;28;20677;-73
2022/01/22 03:03:39;;;;;;;2.50;0.90;;;;;;;-0.83;82.50;95745.00;5060334;28;20204;-73
2022/01/22 03:06:26;;;;;;;3.83;1.50;;;;;;;-0.80;83.69;95755.75;5059635;28;20566;-73
2022/01/22 03:09:14;;;;;;;3.33;1.00;;;;;;;-0.77;82.98;95749.66;5076327;28;20221;-73
2022/01/22 03:29:43;;;;;;;1.63;1.10;;;;;;;-0.65;82.65;95757.50;5069906;28;20197;-73
2022/01/22 03:32:36;;;;;;;2.20;0.87;;;;;;;-0.75;82.48;95751.97;5091654;28;20213;-73
2022/01/22 03:35:26;;;;;;;1.83;1.00;;;;;;;-0.73;82.30;95763.88;5061281;28;20190;-73
2022/01/22 03:38:13;;;;;;;1.10;0.93;;;;;;;-0.72;82.82;95754.72;5047670;28;20253;-73
2022/01/22 03:41:00;;;;;;;2.33;0.80;;;;;;;-0.65;81.78;95765.53;5083752;28;20186;-73
2022/01/22 03:43:46;;;;;;;3.40;1.07;;;;;;;-0.66;82.10;95753.25;5050853;28;20197;-73
2022/01/22 03:46:33;;;;;;;1.90;0.90;;;;;;;-0.65;83.83;95752.13;5078263;28;20250;-73
2022/01/22 03:49:19;;;;;;;1.17;0.70;;;;;;;-0.59;84.33;95745.28;5064322;28;20230;-73
2022/01/22 03:52:05;;;;;;;4.10;1.30;;;;;;;-0.68;86.59;95763.56;5062970;28;20217;-73
2022/01/22 03:54:51;;;;;;;3.43;1.20;;;;;;;-0.91;87.35;95746.78;5063286;28;20204;-73
2022/01/22 03:57:57;;;;;;;1.60;0.83;;;;;;;-0.86;90.28;95751.06;5070661;28;20221;-73
2022/01/22 04:00:44;;;;;;;5.63;1.13;;;;;;;-0.84;94.02;95760.28;5065449;28;20639;-73
2022/01/22 04:03:35;;;;;;;1.87;0.80;;;;;;;-1.01;98.14;95749.31;5091192;28;20336;-73
2022/01/22 04:09:11;;;;;;;1.70;1.00;;;;;;;-1.19;100.00;95761.72;5074019;28;20258;-72
2022/01/22 04:11:59;;;;;;;1.60;1.50;;;;;;;-1.22;100.00;95763.97;5075245;28;20267;-73
2022/01/22 04:14:56;;;;;;;2.37;0.93;;;;;;;-1.20;100.00;95758.25;5054597;28;20201;-73
2022/01/22 04:29:40;;;;;;;2.87;1.23;;;;;;;-1.49;100.00;95749.00;5065841;28;20286;-73
2022/01/22 04:32:28;;;;;;;2.13;1.30;;;;;;;-1.49;100.00;95750.91;5083136;28;20270;-73
2022/01/22 04:35:14;;;;;;;5.57;1.63;;;;;;;-1.42;100.00;95754.47;5091850;28;20193;-73
2022/01/22 04:38:00;;;;;;;4.63;1.23;;;;;;;-1.39;100.00;95747.63;5036920;28;20293;-73
2022/01/22 04:40:46;;;;;;;2.17;1.10;;;;;;;-1.54;100.00;95733.25;5071622;28;20196;-72
2022/01/22 04:43:34;;;;;;;4.73;1.67;;;;;;;-1.44;100.00;95743.34;5070165;28;20276;-72
2022/01/22 04:46:26;;;;;;;3.63;1.53;;;;;;;-1.34;100.00;95740.06;5069420;28;20273;-73
2022/01/22 04:52:34;;;;;;;4.10;1.47;;;;;;;-1.48;100.00;95750.56;5054559;28;20205;-73
2022/01/22 04:55:14;;;;;;;3.53;1.53;;;;;;;-1.49;100.00;95742.88;5056007;28;20186;-73
2022/01/22 04:58:03;;;;;;;3.20;1.63;;;;;;;-1.48;100.00;95755.16;5055755;28;20242;-73
2022/01/22 05:00:50;;;;;;;4.90;1.80;;;;;;;-1.38;100.00;95759.91;5064267;28;20280;-73
2022/01/22 05:03:36;;;;;;;3.83;1.53;;;;;;;-1.35;100.00;95762.63;5070864;28;20186;-73
2022/01/22 05:06:48;;;;;;;3.13;1.50;;;;;;;-1.31;100.00;95751.97;5059525;28;20204;-73
2022/01/22 05:10:04;;;;;;;5.10;2.00;;;;;;;-1.29;100.00;95761.19;5064792;28;20202;-73
2022/01/22 05:12:53;;;;;;;2.47;1.37;;;;;;;-1.29;100.00;95757.75;5056975;28;20228;-73
2022/01/22 05:15:39;;;;;;;5.03;1.40;;;;;;;-1.37;100.00;95748.81;5069127;28;20577;-74
2022/01/22 05:18:26;;;;;;;3.53;1.57;;;;;;;-1.16;100.00;95769.03;5060442;28;20225;-73
2022/01/22 05:21:15;;;;;;;3.17;1.40;;;;;;;-1.21;100.00;95748.69;5079854;28;20200;-73
2022/01/22 05:24:06;;;;;;;2.20;1.50;;;;;;;-1.07;100.00;95751.56;5060313;28;20805;-74
2022/01/22 05:39:41;;;;;;;3.53;1.90;;;;;;;-1.03;100.00;95757.72;5091433;28;20211;-73
2022/01/22 05:42:27;;;;;;;3.43;1.80;;;;;;;-0.98;100.00;95756.63;5070531;28;20252;-73
2022/01/22 05:45:13;;;;;;;4.43;1.80;;;;;;;-0.97;100.00;95760.88;5087249;28;20579;-73
2022/01/22 05:47:58;;;;;;;4.30;1.93;;;;;;;-0.97;100.00;95752.84;5058177;28;20214;-73
2022/01/22 05:51:00;;;;;;;4.33;2.13;;;;;;;-0.95;100.00;95755.94;5058107;28;20193;-73
2022/01/22 05:59:39;;;;;;;3.50;2.07;;;;;;;-0.95;100.00;95754.00;5087119;28;20274;-73
2022/01/22 06:02:27;;;;;;;5.63;1.90;;;;;;;-0.95;100.00;95759.38;5067010;28;20221;-73
2022/01/22 06:05:20;;;;;;;5.43;2.50;;;;;;;-0.96;100.00;95755.16;5053645;28;20194;-73
2022/01/22 06:08:06;;;;;;;3.23;2.10;;;;;;;-0.97;100.00;95753.63;5058293;28;20216;-73
2022/01/22 06:10:55;;;;;;;4.13;2.43;;;;;;;-0.96;100.00;95749.78;5067607;28;20194;-73
2022/01/22 06:13:46;;;;;;;4.37;2.40;;;;;;;-1.05;100.00;95741.22;5055497;28;20223;-73
2022/01/22 06:16:36;;;;;;;2.80;2.20;;;;;;;-1.13;100.00;95741.50;5051678;28;20184;-73
2022/01/22 06:19:34;;;;;;;3.53;2.60;;;;;;;-1.11;100.00;95742.69;5064716;28;20770;-73
2022/01/22 06:22:21;;;;;;;3.33;2.60;;;;;;;-1.16;100.00;95748.38;5068653;28;20242;-73
2022/01/22 06:25:09;;;;;;;3.93;2.90;;;;;;;-1.04;100.00;95748.16;5046966;28;20583;-73
2022/01/22 06:27:55;;;;;;;4.33;2.53;;;;;;;-1.01;100.00;95758.16;5045766;28;20308;-73
2022/01/22 06:30:41;;;;;;;8.97;3.00;;;;;;;-1.07;100.00;95756.16;5076350;28;20201;-73
2022/01/22 06:33:27;;;;;;;4.53;2.90;;;;;;;-1.03;100.00;95765.78;5052256;28;20188;-73
2022/01/22 06:36:13;;;;;;;8.67;3.60;;;;;;;-0.97;100.00;95769.69;5053462;28;20185;-73
2022/01/22 06:39:12;;;;;;;4.73;2.43;;;;;;;-0.96;100.00;95768.56;5061255;28;20311;-73
2022/01/22 06:42:17;;;;;;;4.17;2.90;;;;;;;-0.96;100.00;95781.19;5078212;28;20275;-73
2022/01/22 06:45:13;;;;;;;4.93;2.47;;;;;;;-0.99;100.00;95780.00;5062515;28;20232;-73
2022/01/22 06:47:59;;;;;;;4.13;2.67;;;;;;;-1.00;100.00;95788.41;5085171;28;20224;-73
2022/01/22 06:50:47;;;;;;;3.77;2.77;;;;;;;-0.96;100.00;95784.63;5052575;28;20205;-74
2022/01/22 06:53:36;;;;;;;5.03;2.83;;;;;;;-0.95;100.00;95791.53;5042190;28;20548;-73
2022/01/22 06:56:24;;;;;;;2.40;2.20;;;;;;;-1.06;100.00;95782.59;5033341;28;20198;-73
2022/01/22 06:59:28;;;;;;;3.93;3.03;;;;;;;-1.02;100.00;95802.19;5079367;28;20224;-74
2022/01/22 07:02:15;;;;;;;4.50;3.13;;;;;;;-1.10;100.00;95791.72;5073470;28;20197;-74
2022/01/22 07:05:01;;;;;;;4.10;2.50;;;;;;;-1.02;100.00;95804.88;5066656;28;20233;-73
2022/01/22 07:08:01;;;;;;;3.03;2.70;;;;;;;-0.97;100.00;95801.88;5074353;28;20209;-74
2022/01/22 07:10:49;;;;;;;4.97;3.10;;;;;;;-0.96;100.00;95789.22;5074766;28;20228;-74
2022/01/22 07:13:35;;;;;;;2.60;2.40;;;;;;;-0.87;100.00;95792.41;5067314;28;20760;-74
2022/01/22 07:16:23;;;;;;;5.53;2.70;;;;;;;-0.96;100.00;95787.31;5057002;28;20207;-73
2022/01/22 07:19:20;;;;;;;3.33;2.50;;;;;;;-0.90;100.00;95801.19;5075744;28;20304;-74
2022/01/22 07:22:34;;;;;;;4.87;3.23;;;;;;;-0.93;100.00;95789.28;5068627;28;20185;-74
2022/01/22 07:25:20;;;;;;;11.90;2.67;;;;;;;-0.88;100.00;95799.69;5043708;28;20662;-74
2022/01/22 07:28:07;;;;;;;6.13;2.60;;;;;;;-0.85;100.00;95808.94;5066400;28;20279;-74
2022/01/22 07:30:53;;;;;;;6.53;2.83;;;;;;;-0.96;100.00;95805.31;5064590;28;20196;-74
2022/01/22 07:33:41;;;;;;;6.27;3.17;;;;;;;-0.94;100.00;95801.16;5079012;28;20197;-73
2022/01/22 07:36:27;;;;;;;4.83;3.37;;;;;;;-0.96;100.00;95802.63;5060147;28;20191;-74
2022/01/22 07:39:14;;;;;;;5.30;3.13;;;;;;;-0.95;100.00;95804.19;5063055;28;20226;-73
2022/01/22 07:42:20;;;;;;;2.90;2.70;;;;;;;-1.06;100.00;95793.31;5071541;28;20185;-73
2022/01/22 07:45:13;;;;;;;9.07;4.73;;;;;;;-1.04;100.00;95799.09;5090531;28;20193;-74
2022/01/22 07:48:01;;;;;;;6.77;3.33;;;;;;;-0.95;100.00;95820.28;5046014;28;20316;-75
2022/01/22 07:51:07;;;;;;;5.47;3.40;;;;;;;-0.89;100.00;95816.91;5082497;28;20225;-74
2022/01/22 07:53:54;;;;;;;5.47;3.47;;;;;;;-0.98;100.00;95808.34;5071367;28;20207;-74
2022/01/22 07:56:42;;;;;;;4.53;2.80;;;;;;;-0.82;100.00;95826.97;5057382;28;20208;-74
2022/01/22 07:59:36;;;;;;;4.73;3.40;;;;;;;-0.84;100.00;95839.94;5076885;28;20219;-73
2022/01/22 08:02:23;;;;;;;5.30;2.83;;;;;;;-0.88;100.00;95826.50;5071837;28;20198;-74
2022/01/22 08:05:32;;;;;;;6.57;3.43;;;;;;;-0.91;100.00;95829.91;5048111;28;20662;-74
2022/01/22 08:08:37;;;;;;;6.23;3.37;;;;;;;-0.82;100.00;95817.03;5053708;28;20301;-74
2022/01/22 08:11:43;;;;;;;5.17;3.37;;;;;;;-0.86;100.00;95824.22;5055289;28;20651;-74
2022/01/22 08:14:29;;;;;;;5.70;3.40;;;;;;;-0.83;100.00;95838.84;5077395;28;20584;-73
2022/01/22 08:17:16;;;;;;;4.03;3.00;;;;;;;-0.77;100.00;95830.13;5092951;28;20199;-74
2022/01/22 08:20:04;;;;;;;6.00;3.67;;;;;;;-0.79;100.00;95834.28;5069891;28;20590;-73
2022/01/22 08:23:08;;;;;;;4.83;3.70;;;;;;;-0.75;100.00;95838.59;5070265;28;20197;-74
2022/01/22 08:26:11;;;;;;;5.67;3.50;;;;;;;-0.77;100.00;95832.81;5063993;28;20196;-74
2022/01/22 08:29:26;;;;;;;7.97;3.87;;;;;;;-0.76;100.00;95836.22;5055651;28;20258;-74
2022/01/22 08:38:26;;;;;;;4.17;3.53;;;;;;;-0.74;100.00;95842.78;5070408;28;20212;-73
2022/01/22 08:41:12;;;;;;;4.63;3.63;;;;;;;-0.63;100.00;95846.38;5062351;28;20190;-73
2022/01/22 08:44:02;;;;;;;4.80;4.10;;;;;;;-0.77;100.00;95830.13;5055802;28;20189;-73
2022/01/22 08:46:48;;;;;;;6.10;3.90;;;;;;;-0.63;100.00;95835.66;5062993;28;20220;-73
2022/01/22 08:49:34;;;;;;;7.33;3.70;;;;;;;-0.52;100.00;95841.97;5065207;28;20316;-73
2022/01/22 08:52:31;;;;;;;5.00;3.97;;;;;;;-0.52;100.00;95841.19;5059816;28;20220;-73
2022/01/22 08:55:17;;;;;;;5.13;3.57;;;;;;;-0.53;100.00;95845.00;5069250;28;20193;-73
2022/01/22 08:58:04;;;;;;;3.57;3.27;;;;;;;-0.55;100.00;95844.59;5059926;28;20213;-73
2022/01/22 09:01:13;;;;;;;4.67;3.20;;;;;;;-0.55;100.00;95839.22;5072980;28;20181;-73
2022/01/22 09:04:05;;;;;;;6.97;4.20;;;;;;;-0.55;100.00;95847.28;5055260;28;20252;-72
2022/01/22 09:07:14;;;;;;;4.07;3.33;;;;;;;-0.50;100.00;95852.31;5079366;28;20197;-73
2022/01/22 09:10:13;;;;;;;4.70;3.67;;;;;;;-0.40;100.00;95854.38;5076545;28;20193;-74
2022/01/22 09:12:59;;;;;;;4.23;3.83;;;;;;;-0.33;100.00;95857.94;5067717;28;20228;-73
2022/01/22 09:15:55;;;;;;;4.23;3.20;;;;;;;-0.54;100.00;95856.84;5059120;28;20193;-73
2022/01/22 09:18:44;;;;;;;4.07;3.67;;;;;;;-0.31;100.00;95879.81;5057334;28;20238;-74
2022/01/22 09:21:31;;;;;;;8.30;4.17;;;;;;;-0.08;100.00;95875.13;5044006;28;20321;-74
2022/01/22 09:24:18;;;;;;;4.77;4.00;;;;;;;-0.23;100.00;95873.41;5057541;28;20558;-73
2022/01/22 09:27:10;;;;;;;5.50;4.30;;;;;;;-0.18;100.00;95872.28;5026738;28;20597;-74
2022/01/22 09:30:05;;;;;;;5.07;3.30;;;;;;;-0.21;100.00;95871.13;5058514;28;20201;-74
2022/01/22 09:32:54;;;;;;;4.70;3.53;;;;;;;-0.21;100.00;95879.19;5072285;28;20234;-73
2022/01/22 09:35:59;;;;;;;6.60;3.90;;;;;;;-0.07;100.00;95876.66;5056429;28;20195;-74
2022/01/22 09:39:18;;;;;;;4.67;3.50;;;;;;;-0.04;100.00;95885.91;5065596;28;20727;-73
2022/01/22 09:42:31;;;;;;;4.20;3.63;;;;;;;-0.17;100.00;95876.53;5077375;28;20201;-74
2022/01/22 09:45:52;;;;;;;4.70;3.20;;;;;;;-0.21;100.00;95897.19;4984851;28;20575;-75
2022/01/22 09:48:50;;;;;;;3.70;3.37;;;;;;;-0.06;100.00;95898.91;5056799;28;20733;-74
2022/01/22 09:51:52;;;;;;;4.83;3.57;;;;;;;-0.04;100.00;95896.66;5053474;28;20225;-73
2022/01/22 09:54:57;;;;;;;4.50;3.67;;;;;;;-0.15;100.00;95903.78;5063936;28;20224;-73
2022/01/22 09:58:03;;;;;;;6.43;3.73;;;;;;;0.07;100.00;95902.16;5057654;28;20217;-74
2022/01/22 10:01:31;;;;;;;4.73;3.23;;;;;;;0.06;100.00;95908.66;5053060;28;20244;-74
2022/01/22 10:04:52;;;;;;;6.57;3.60;;;;;;;0.02;100.00;95913.97;5060742;28;20994;-74
2022/01/22 10:08:24;;;;;;;3.93;3.57;;;;;;;-0.06;100.00;95912.34;5034596;28;20211;-74
2022/01/22 10:11:46;;;;;;;5.97;4.30;;;;;;;0.02;100.00;95918.59;5004876;28;20302;-74
2022/01/22 10:14:34;;;;;;;6.23;3.60;;;;;;;0.21;100.00;95915.72;5069798;28;20201;-73
2022/01/22 10:18:03;;;;;;;4.00;3.43;;;;;;;0.30;100.00;95911.63;5052006;28;20190;-74
2022/01/22 10:20:49;;;;;;;4.00;3.50;;;;;;;0.14;100.00;95902.25;5042917;28;20227;-74
2022/01/22 10:23:39;;;;;;;5.57;3.33;;;;;;;0.17;100.00;95907.63;5067947;28;20269;-74
2022/01/22 10:26:25;;;;;;;3.73;3.40;;;;;;;0.09;100.00;95924.81;5054361;28;20197;-73
2022/01/22 10:29:11;;;;;;;3.50;3.20;;;;;;;0.31;100.00;95912.41;5069517;28;20655;-73
2022/01/22 10:32:02;;;;;;;3.53;3.23;;;;;;;0.18;100.00;95908.41;5054265;28;20229;-73
2022/01/22 10:35:27;;;;;;;6.43;3.53;;;;;;;0.30;100.00;95908.16;5083902;28;20243;-72
2022/01/22 10:38:47;;;;;;;4.20;3.40;;;;;;;0.22;100.00;95903.88;5063365;28;20220;-72
2022/01/22 10:41:42;;;;;;;5.67;3.77;;;;;;;0.35;100.00;95924.75;5062360;28;20670;-72
2022/01/22 10:44:46;;;;;;;4.07;3.10;;;;;;;0.84;100.00;95902.97;5057546;28;20190;-73
2022/01/22 10:47:32;;;;;;;6.07;3.97;;;;;;;0.94;100.00;95897.72;5075990;28;20185;-72
2022/01/22 10:50:21;;;;;;;3.90;3.43;;;;;;;1.27;100.00;95888.75;5054142;28;20726;-72
2022/01/22 10:53:06;;;;;;;5.57;3.27;;;;;;;1.54;100.00;95894.72;5058058;28;20217;-72
2022/01/22 10:56:00;;;;;;;3.63;3.13;;;;;;;0.95;100.00;95887.72;5057039;28;20190;-72
2022/01/22 10:59:05;;;;;;;5.10;2.73;;;;;;;0.76;100.00;95899.47;5065500;28;20759;-73
2022/01/22 11:01:56;;;;;;;5.40;3.43;;;;;;;0.60;100.00;95896.22;5062966;28;20185;-73
2022/01/22 11:04:43;;;;;;;5.53;2.73;;;;;;;0.53;100.00;95893.47;5074819;28;20189;-72
2022/01/22 11:07:28;;;;;;;4.30;3.00;;;;;;;0.55;100.00;95893.88;5064756;28;20187;-72
2022/01/22 11:10:14;;;;;;;3.27;2.97;;;;;;;0.74;100.00;95912.50;5078647;28;20204;-73
2022/01/22 11:13:04;;;;;;;5.40;2.60;;;;;;;0.76;100.00;95914.81;5061668;28;20217;-73
2022/01/22 11:15:51;;;;;;;3.93;3.00;;;;;;;0.71;100.00;95907.84;5041325;28;20193;-73
2022/01/22 11:18:40;;;;;;;4.67;3.17;;;;;;;0.58;100.00;95905.78;5071815;28;20213;-73
2022/01/22 11:21:26;;;;;;;4.70;3.17;;;;;;;0.92;100.00;95891.91;5082673;28;20224;-73
2022/01/22 11:24:17;;;;;;;5.60;3.60;;;;;;;1.01;100.00;95895.09;5064182;28;20201;-73
2022/01/22 11:27:06;;;;;;;3.40;3.10;;;;;;;0.93;100.00;95906.91;5063752;28;20675;-73
2022/01/22 11:30:01;;;;;;;4.17;3.43;;;;;;;0.87;100.00;95910.31;5074999;28;20250;-73
2022/01/22 11:33:10;;;;;;;6.40;3.40;;;;;;;0.77;100.00;95905.59;5045935;28;20286;-73
2022/01/22 11:36:24;;;;;;;3.20;2.87;;;;;;;1.14;100.00;95890.19;5074583;28;20284;-73
2022/01/22 11:39:19;;;;;;;3.57;2.93;;;;;;;0.97;100.00;95905.03;5068902;28;20217;-73
2022/01/22 11:42:06;;;;;;;3.50;2.90;;;;;;;0.93;100.00;95909.59;5063828;28;20194;-74
2022/01/22 11:45:02;;;;;;;5.00;3.03;;;;;;;0.86;100.00;95912.25;5044767;28;20217;-73
2022/01/22 11:48:17;;;;;;;3.00;2.67;;;;;;;0.90;100.00;95915.72;5037497;28;20297;-73
2022/01/22 11:51:25;;;;;;;3.93;3.20;;;;;;;0.99;100.00;95907.34;5079993;28;20185;-73
2022/01/22 11:54:11;;;;;;;3.50;2.67;;;;;;;0.77;100.00;95909.06;5045778;28;20190;-73
2022/01/22 11:56:57;;;;;;;4.63;2.80;;;;;;;0.82;100.00;95922.19;5070240;28;20225;-73
2022/01/22 11:59:46;;;;;;;7.37;3.20;;;;;;;0.84;100.00;95921.81;5074964;28;20211;-73
2022/01/22 12:02:32;;;;;;;4.50;3.27;;;;;;;0.84;100.00;95919.91;5084024;28;20643;-73
2022/01/22 12:05:18;;;;;;;4.43;3.50;;;;;;;0.78;100.00;95921.34;5065919;28;20201;-73
2022/01/22 12:08:04;;;;;;;5.00;3.17;;;;;;;0.98;100.00;95917.34;5076845;28;20217;-74
2022/01/22 12:17:02;;;;;;;3.57;2.93;;;;;;;1.01;100.00;95897.00;5081601;28;20750;-74
2022/01/22 12:22:36;;;;;;;4.07;3.60;;;;;;;0.78;100.00;95896.41;5075538;28;20307;-74
2022/01/22 12:25:22;;;;;;;5.67;3.73;;;;;;;0.76;100.00;95893.31;5048387;28;20643;-73
2022/01/22 12:28:10;;;;;;;3.40;3.10;;;;;;;0.92;100.00;95897.31;5048056;28;20310;-73
2022/01/22 12:31:05;;;;;;;4.53;3.47;;;;;;;0.93;100.00;95893.44;5080529;28;20208;-74
2022/01/22 12:33:53;;;;;;;3.90;3.20;;;;;;;1.04;100.00;95883.56;5092626;28;20319;-73
2022/01/22 12:36:41;;;;;;;5.00;3.20;;;;;;;1.02;100.00;95890.47;5092599;28;20279;-73
2022/01/22 12:39:29;;;;;;;3.53;3.23;;;;;;;0.90;100.00;95882.69;5081586;28;20602;-73
2022/01/22 12:42:24;;;;;;;5.80;3.30;;;;;;;0.96;100.00;95887.34;5082881;28;20185;-73
2022/01/22 12:45:10;;;;;;;3.37;3.07;;;;;;;0.86;100.00;95889.94;5088848;28;20189;-72
2022/01/22 12:47:56;;;;;;;4.80;3.70;;;;;;;0.93;100.00;95884.63;5060815;28;20624;-72
2022/01/22 12:50:42;;;;;;;3.83;3.33;;;;;;;0.76;100.00;95898.69;5047924;28;20205;-72
2022/01/22 12:53:29;;;;;;;4.93;3.43;;;;;;;0.88;100.00;95885.72;5042740;28;20212;-71
2022/01/22 12:56:49;;;;;;;6.30;4.50;;;;;;;0.98;100.00;95878.91;5054559;28;20206;-72
2022/01/22 13:00:11;;;;;;;4.67;3.40;;;;;;;1.11;100.00;95885.53;5081524;28;20223;-72
2022/01/22 13:02:57;;;;;;;4.13;3.73;;;;;;;1.27;100.00;95899.53;5023752;28;20510;-72
2022/01/22 13:05:46;;;;;;;3.93;3.30;;;;;;;1.30;100.00;95895.31;5070556;28;20327;-72
2022/01/22 13:08:36;;;;;;;4.80;3.70;;;;;;;1.15;100.00;95891.75;5065171;28;20277;-71
2022/01/22 13:11:28;;;;;;;6.70;3.73;;;;;;;1.04;100.00;95902.41;5037563;28;20272;-72
2022/01/22 13:14:16;;;;;;;4.53;4.03;;;;;;;1.01;100.00;95892.41;5070994;28;20622;-72
2022/01/22 13:17:02;;;;;;;4.03;3.57;;;;;;;1.04;100.00;95883.56;5069444;28;20194;-72
2022/01/22 13:19:48;;;;;;;6.40;4.70;;;;;;;0.97;100.00;95902.34;5064587;28;20683;-72
2022/01/22 13:22:37;;;;;;;10.17;7.13;;;;;;;0.95;100.00;95893.88;5069892;28;20209;-73
2022/01/22 13:25:23;;;;;;;12.07;7.07;;;;;;;0.86;100.00;95892.63;5071626;28;20244;-72
2022/01/22 13:28:11;;;;;;;5.87;4.67;;;;;;;0.85;100.00;95894.53;5064670;28;20292;-72
2022/01/22 13:31:03;;;;;;;7.50;5.23;;;;;;;0.72;100.00;95893.28;5073720;28;20193;-72
2022/01/22 13:34:11;;;;;;;7.90;4.83;;;;;;;0.75;100.00;95895.22;5058516;28;20198;-72
2022/01/22 13:37:40;;;;;;;4.83;3.37;;;;;;;0.75;100.00;95902.50;5063921;28;20197;-72
2022/01/22 13:40:33;;;;;;;7.03;6.10;;;;;;;0.73;100.00;95919.00;5071375;28;20212;-72
2022/01/22 13:49:45;;;;;;;5.53;4.47;;;;;;;0.71;100.00;95912.47;5066184;28;20702;-71
2022/01/22 13:52:31;;;;;;;5.93;4.73;;;;;;;0.86;100.00;95908.78;5067587;28;20738;-72
2022/01/22 13:55:17;;;;;;;7.40;4.60;;;;;;;0.67;100.00;95903.59;5057692;28;20739;-71
2022/01/22 13:58:03;;;;;;;6.07;4.77;;;;;;;0.75;100.00;95919.41;5076189;28;20711;-72
2022/01/22 14:00:49;;;;;;;6.67;5.37;;;;;;;0.71;100.00;95917.84;5065609;28;20201;-72
2022/01/22 14:03:44;;;;;;;5.80;5.20;;;;;;;0.53;100.00;95895.38;5047371;28;20670;-72
2022/01/22 14:06:34;;;;;;;8.07;5.63;;;;;;;0.68;100.00;95907.84;5062075;28;20293;-71
2022/01/22 14:09:21;;;;;;;7.80;4.93;;;;;;;0.65;100.00;95901.28;5070926;28;20701;-72
2022/01/22 14:12:15;;;;;;;7.17;4.93;;;;;;;0.60;100.00;95895.44;5043428;28;20283;-72
2022/01/22 14:15:06;;;;;;;7.40;4.60;;;;;;;0.55;100.00;95899.25;5077157;28;20194;-72
2022/01/22 14:21:09;;;;;;;6.50;5.73;;;;;;;0.49;100.00;95906.09;5073714;28;20200;-72
2022/01/22 14:23:55;;;;;;;5.70;4.97;;;;;;;0.50;100.00;95896.09;5053942;28;20197;-72
2022/01/22 14:26:41;;;;;;;6.50;5.40;;;;;;;0.58;100.00;95893.13;5049278;28;20202;-72
2022/01/22 14:29:27;;;;;;;6.33;5.07;;;;;;;0.63;100.00;95903.53;5070320;28;20224;-72
2022/01/22 14:32:16;;;;;;;5.30;4.47;;;;;;;0.68;100.00;95905.91;5068155;28;20693;-72
2022/01/22 14:35:18;;;;;;;6.80;4.87;;;;;;;0.72;100.00;95904.03;5066460;28;20229;-73
2022/01/22 14:38:36;;;;;;;6.73;4.97;;;;;;;0.66;100.00;95916.25;5051266;28;20220;-73
2022/01/22 14:44:33;;;;;;;5.87;4.37;;;;;;;0.52;100.00;95921.50;5087001;28;20689;-73
2022/01/22 14:47:27;;;;;;;5.03;4.23;;;;;;;0.43;100.00;95909.47;5068862;28;20201;-73
2022/01/22 14:50:12;;;;;;;5.43;4.93;;;;;;;0.47;100.00;95910.28;5074545;28;20281;-72
2022/01/22 14:53:00;;;;;;;5.97;3.97;;;;;;;0.44;100.00;95914.47;5073988;28;20241;-73
2022/01/22 14:55:59;;;;;;;8.87;6.10;;;;;;;0.58;100.00;95913.84;5048870;28;20205;-73
2022/01/22 14:58:45;;;;;;;8.90;6.23;;;;;;;0.48;100.00;95909.91;5043966;28;20213;-72
2022/01/22 15:01:31;;;;;;;11.67;8.23;;;;;;;0.50;100.00;95921.06;5073514;28;20182;-72
2022/01/22 15:04:17;;;;;;;8.10;5.53;;;;;;;0.37;100.00;95916.31;5067750;28;20196;-72
2022/01/22 15:07:06;;;;;;;5.93;5.00;;;;;;;0.30;100.00;95908.16;5070292;28;20250;-72
2022/01/22 15:09:52;;;;;;;6.17;5.53;;;;;;;0.41;100.00;95906.41;5052591;28;20264;-74
2022/01/22 15:12:39;;;;;;;5.10;4.33;;;;;;;0.29;100.00;95912.75;5058106;28;20221;-73
2022/01/22 15:15:31;;;;;;;7.87;5.67;;;;;;;0.34;100.00;95914.38;5065351;28;20668;-74
2022/01/22 15:18:39;;;;;;;7.43;5.07;;;;;;;0.29;100.00;95918.13;5044510;28;20218;-74
2022/01/22 15:21:23;;;;;;;9.10;5.30;;;;;;;0.24;100.00;95923.09;5069031;28;20204;-74
2022/01/22 15:24:09;;;;;;;5.40;4.80;;;;;;;0.25;100.00;95913.88;5068933;28;20186;-74
2022/01/22 15:26:56;;;;;;;6.97;5.30;;;;;;;0.22;100.00;95931.47;5064440;28;20197;-74
2022/01/22 15:35:27;;;;;;;5.43;4.93;;;;;;;0.28;100.00;95940.00;5072338;28;20647;-73